createdAt,value
2023-12-08T00:00:56.723Z,34.80
2023-12-08T00:03:26.622Z,31.60
2023-12-08T00:05:57.006Z,37.45
2023-12-08T00:08:26.610Z,32.55
2023-12-08T00:10:56.461Z,30.70
2023-12-08T00:13:26.680Z,32.98
2023-12-08T00:15:56.542Z,31.63
2023-12-08T00:18:26.588Z,32.58
2023-12-08T00:20:56.462Z,35.65
2023-12-08T00:23:26.587Z,36.88
2023-12-08T00:25:56.471Z,31.80
2023-12-08T00:28:26.353Z,33.30
2023-12-08T00:30:56.297Z,31.80
2023-12-08T00:33:26.360Z,34.97
2023-12-08T00:35:56.299Z,33.40
2023-12-08T00:38:25.934Z,29.23
2023-12-08T00:40:57.632Z,35.23
2023-12-08T00:43:27.744Z,30.70
2023-12-08T00:45:57.375Z,29.45
2023-12-08T00:48:27.381Z,28.37
2023-12-08T00:50:57.471Z,28.93
2023-12-08T00:53:27.763Z,31.02
2023-12-08T00:55:57.819Z,27.93
2023-12-08T00:58:27.762Z,31.82
2023-12-08T01:00:57.687Z,30.87
2023-12-08T01:03:27.824Z,27.87
2023-12-08T01:05:58.941Z,27.67
2023-12-08T01:08:28.808Z,27.02
2023-12-08T01:10:58.720Z,30.67
2023-12-08T01:13:28.593Z,28.47
2023-12-08T01:15:58.502Z,28.40
2023-12-08T01:18:28.371Z,28.77
2023-12-08T01:20:58.348Z,27.77
2023-12-08T01:23:28.259Z,28.00
2023-12-08T01:25:58.475Z,24.75
2023-12-08T01:28:28.451Z,31.87
2023-12-08T01:30:58.605Z,23.60
2023-12-08T01:33:32.053Z,25.57
2023-12-08T01:36:38.157Z,26.75
2023-12-08T01:38:33.948Z,26.37
2023-12-08T01:41:03.942Z,24.47
2023-12-08T01:43:33.795Z,23.87
2023-12-08T01:46:06.234Z,28.97
2023-12-08T01:48:36.589Z,28.47
2023-12-08T01:51:07.689Z,23.83
2023-12-08T01:53:37.959Z,26.73
2023-12-08T01:56:10.771Z,25.15
2023-12-08T01:58:42.433Z,25.90
2023-12-08T02:01:12.866Z,24.27
2023-12-08T02:03:43.982Z,22.95
2023-12-08T02:06:14.086Z,27.35
2023-12-08T02:08:44.040Z,27.30
2023-12-08T02:11:15.221Z,22.80
2023-12-08T02:13:46.587Z,26.83
2023-12-08T02:16:27.709Z,21.00
2023-12-08T02:18:59.018Z,23.23
2023-12-08T02:21:31.396Z,26.57
2023-12-08T02:24:01.801Z,24.37
2023-12-08T02:26:31.800Z,27.03
2023-12-08T02:29:01.998Z,24.40
2023-12-08T02:31:34.902Z,25.60
2023-12-08T02:34:08.572Z,26.13
2023-12-08T02:36:39.484Z,25.70
2023-12-08T02:39:12.320Z,26.50
2023-12-08T02:41:44.638Z,26.10
2023-12-08T02:44:14.571Z,24.90
2023-12-08T02:46:44.977Z,29.63
2023-12-08T02:49:15.008Z,26.87
2023-12-08T02:51:44.837Z,28.73
2023-12-08T02:54:14.944Z,27.20
2023-12-08T02:56:44.925Z,27.50
2023-12-08T02:59:14.787Z,27.33
2023-12-08T03:01:44.679Z,24.63
2023-12-08T03:04:14.554Z,28.17
2023-12-08T03:06:44.396Z,27.60
2023-12-08T03:09:15.272Z,23.97
2023-12-08T03:11:46.758Z,26.73
2023-12-08T03:14:16.311Z,25.37
2023-12-08T03:16:48.153Z,30.80
2023-12-08T03:19:18.338Z,33.00
2023-12-08T03:21:49.090Z,29.57
2023-12-08T03:24:19.092Z,27.93
2023-12-08T03:26:49.087Z,27.90
2023-12-08T03:29:19.000Z,29.97
2023-12-08T03:31:48.833Z,31.90
2023-12-08T03:34:18.450Z,31.57
2023-12-08T03:36:48.369Z,31.23
2023-12-08T03:39:18.313Z,34.33
2023-12-08T03:41:48.161Z,31.60
2023-12-08T03:44:18.222Z,34.57
2023-12-08T03:46:48.128Z,31.20
2023-12-08T03:49:18.778Z,33.70
2023-12-08T03:51:48.758Z,35.83
2023-12-08T03:54:18.720Z,35.92
2023-12-08T03:56:48.631Z,35.10
2023-12-08T03:59:18.534Z,36.30
2023-12-08T04:01:50.184Z,34.48
2023-12-08T04:04:25.883Z,35.98
2023-12-08T04:06:51.376Z,38.05
2023-12-08T04:09:21.301Z,37.10
2023-12-08T04:11:51.240Z,36.50
2023-12-08T04:14:21.048Z,38.17
2023-12-08T04:16:53.147Z,36.63
2023-12-08T04:19:23.327Z,36.13
2023-12-08T04:21:54.043Z,33.23
2023-12-08T04:24:24.277Z,36.03
2023-12-08T04:26:54.273Z,37.57
2023-12-08T04:29:24.276Z,36.93
2023-12-08T04:31:54.608Z,40.00
2023-12-08T04:34:24.318Z,37.40
2023-12-08T04:36:54.190Z,36.73
2023-12-08T04:39:24.048Z,40.30
2023-12-08T04:41:53.977Z,38.70
2023-12-08T04:44:23.580Z,36.53
2023-12-08T04:46:53.917Z,36.17
2023-12-08T04:49:24.472Z,40.80
2023-12-08T04:51:54.504Z,40.60
2023-12-08T04:54:24.128Z,43.52
2023-12-08T04:56:54.024Z,42.87
2023-12-08T04:59:23.955Z,42.27
2023-12-08T05:01:54.665Z,40.60
2023-12-08T05:04:24.561Z,45.28
2023-12-08T05:06:54.550Z,44.67
2023-12-08T05:09:25.989Z,42.55
2023-12-08T05:11:56.523Z,44.23
2023-12-08T05:14:26.757Z,41.60
2023-12-08T05:16:56.899Z,45.63
2023-12-08T05:19:27.303Z,44.47
2023-12-08T05:21:57.895Z,46.27
2023-12-08T05:24:27.856Z,41.55
2023-12-08T05:26:57.602Z,44.80
2023-12-08T05:29:27.707Z,44.50
2023-12-08T05:31:57.601Z,43.83
2023-12-08T05:34:27.548Z,39.15
2023-12-08T05:36:57.763Z,43.35
2023-12-08T05:39:27.667Z,47.03
2023-12-08T05:41:57.580Z,45.47
2023-12-08T05:44:27.150Z,42.47
2023-12-08T05:46:58.532Z,46.50
2023-12-08T05:49:28.685Z,45.50
2023-12-08T05:51:58.927Z,46.92
2023-12-08T05:54:28.861Z,44.50
2023-12-08T05:56:59.772Z,44.35
2023-12-08T05:59:29.718Z,47.40
2023-12-08T06:01:59.675Z,51.07
2023-12-08T06:04:29.512Z,51.43
2023-12-08T06:06:59.813Z,46.42
2023-12-08T06:09:30.031Z,46.48
2023-12-08T06:12:00.703Z,47.25
2023-12-08T06:14:30.555Z,46.13
2023-12-08T06:17:00.157Z,49.75
2023-12-08T06:19:30.866Z,46.97
2023-12-08T06:22:00.772Z,47.33
2023-12-08T06:24:30.727Z,44.93
2023-12-08T06:27:00.608Z,46.97
2023-12-08T06:29:31.998Z,46.63
2023-12-08T06:32:01.980Z,47.37
2023-12-08T06:34:32.370Z,46.80
2023-12-08T06:37:02.600Z,48.10
2023-12-08T06:39:32.633Z,49.90
2023-12-08T06:42:02.569Z,45.43
2023-12-08T06:44:32.394Z,47.03
2023-12-08T06:47:02.260Z,46.83
2023-12-08T06:49:32.328Z,48.60
2023-12-08T06:52:02.294Z,52.33
2023-12-08T06:54:33.370Z,45.10
2023-12-08T06:57:03.458Z,45.73
2023-12-08T06:59:33.352Z,46.93
2023-12-08T07:02:03.322Z,47.87
2023-12-08T07:04:33.347Z,44.40
2023-12-08T07:07:03.165Z,48.77
2023-12-08T07:09:33.059Z,49.67
2023-12-08T07:12:02.981Z,44.97
2023-12-08T07:14:33.423Z,45.93
2023-12-08T07:17:03.387Z,37.77
2023-12-08T07:19:33.340Z,45.20
2023-12-08T07:22:03.268Z,41.17
2023-12-08T07:24:33.319Z,44.47
2023-12-08T07:27:03.997Z,44.03
2023-12-08T07:29:34.039Z,45.93
2023-12-08T07:32:05.350Z,49.67
2023-12-08T07:34:35.554Z,48.40
2023-12-08T07:37:05.822Z,47.23
2023-12-08T07:39:35.852Z,46.27
2023-12-08T07:42:08.353Z,50.75
2023-12-08T07:44:38.236Z,51.40
2023-12-08T07:47:08.419Z,48.03
2023-12-08T07:49:38.504Z,45.53
2023-12-08T07:52:09.591Z,49.20
2023-12-08T07:54:39.810Z,53.75
2023-12-08T07:57:10.485Z,52.20
2023-12-08T07:59:40.489Z,51.27
2023-12-08T08:02:11.589Z,53.02
2023-12-08T08:04:42.312Z,52.50
2023-12-08T08:07:12.192Z,51.33
2023-12-08T08:09:43.556Z,55.97
2023-12-08T08:12:13.466Z,45.63
2023-12-08T08:14:43.582Z,57.00
2023-12-08T08:17:13.453Z,46.33
2023-12-08T08:19:43.424Z,49.43
2023-12-08T08:22:29.368Z,52.47
2023-12-08T08:24:44.901Z,52.23
2023-12-08T08:27:14.790Z,58.87
2023-12-08T08:29:44.845Z,58.57
2023-12-08T08:32:16.763Z,50.88
2023-12-08T08:34:46.949Z,58.15
2023-12-08T08:37:17.023Z,52.07
2023-12-08T08:39:46.868Z,51.03
2023-12-08T08:42:16.918Z,54.53
2023-12-08T08:44:46.852Z,54.77
2023-12-08T08:47:18.425Z,65.43
2023-12-08T08:49:48.707Z,52.35
2023-12-08T08:52:19.588Z,58.70
2023-12-08T08:54:49.253Z,54.90
2023-12-08T08:57:19.337Z,54.33
2023-12-08T08:59:49.237Z,59.30
2023-12-08T09:02:19.106Z,62.03
2023-12-08T09:04:49.097Z,54.73
2023-12-08T09:07:18.958Z,55.97
2023-12-08T09:09:48.832Z,63.60
2023-12-08T09:12:18.413Z,63.80
2023-12-08T09:14:48.484Z,74.40
2023-12-08T09:17:18.719Z,62.38
2023-12-08T09:19:48.616Z,71.37
2023-12-08T09:22:18.549Z,73.42
2023-12-08T09:24:48.763Z,84.07
2023-12-08T09:27:18.742Z,85.13
2023-12-08T09:29:48.681Z,91.30
2023-12-08T09:32:18.303Z,85.40
2023-12-08T09:34:48.228Z,92.70
2023-12-08T09:37:27.074Z,97.77
2023-12-08T09:39:49.749Z,90.77
2023-12-08T09:42:25.473Z,103.63
2023-12-08T09:47:29.113Z,104.58
2023-12-08T09:50:03.017Z,100.67
2023-12-08T09:52:35.244Z,120.77
2023-12-08T09:55:06.950Z,116.50
2023-12-08T09:57:38.038Z,114.50
2023-12-08T10:00:14.420Z,109.43
2023-12-08T10:02:44.834Z,119.95
2023-12-08T10:05:14.853Z,110.17
2023-12-08T10:07:47.862Z,133.83
2023-12-08T10:10:17.821Z,119.63
2023-12-08T10:12:48.781Z,120.70
2023-12-08T10:15:19.757Z,132.65
2023-12-08T10:17:54.220Z,126.03
2023-12-08T10:20:25.207Z,131.63
2023-12-08T10:22:57.210Z,141.27
2023-12-08T10:25:28.634Z,131.67
2023-12-08T10:27:59.088Z,133.57
2023-12-08T10:30:29.741Z,129.93
2023-12-08T10:33:00.445Z,126.87
2023-12-08T10:35:30.711Z,139.50
2023-12-08T10:38:03.815Z,140.28
2023-12-08T10:40:33.966Z,144.85
2023-12-08T10:43:05.529Z,125.83
2023-12-08T10:45:36.718Z,133.50
2023-12-08T10:48:08.441Z,146.57
2023-12-08T10:50:40.323Z,133.87
2023-12-08T10:53:11.442Z,143.20
2023-12-08T10:55:41.369Z,152.03
2023-12-08T10:58:16.102Z,142.57
2023-12-08T11:03:19.968Z,150.82
2023-12-08T11:05:52.948Z,141.80
2023-12-08T11:08:22.914Z,131.33
2023-12-08T11:10:56.609Z,144.67
2023-12-08T11:13:29.130Z,146.60
2023-12-08T11:16:36.632Z,151.07
2023-12-08T11:19:10.088Z,150.65
2023-12-08T11:21:39.714Z,163.65
2023-12-08T11:24:12.044Z,157.32
2023-12-08T11:27:09.410Z,139.23
2023-12-08T11:32:31.320Z,133.10
2023-12-08T11:35:08.829Z,132.63
2023-12-08T11:37:39.710Z,124.67
2023-12-08T11:40:14.204Z,130.45
2023-12-08T11:42:49.246Z,123.37
2023-12-08T11:45:20.419Z,117.17
2023-12-08T11:47:50.496Z,100.77
2023-12-08T11:50:20.364Z,107.90
2023-12-08T11:52:52.480Z,100.87
2023-12-08T11:55:30.705Z,94.13
2023-12-08T11:58:05.257Z,85.10
2023-12-08T12:00:40.519Z,86.37
2023-12-08T12:03:12.670Z,94.03
2023-12-08T12:05:44.570Z,87.47
2023-12-08T12:08:15.285Z,84.32
2023-12-08T12:10:47.368Z,83.20
2023-12-08T12:13:20.362Z,88.20
2023-12-08T12:15:50.523Z,78.97
2023-12-08T12:18:20.199Z,82.60
2023-12-08T12:20:51.132Z,87.53
2023-12-08T12:23:20.962Z,101.50
2023-12-08T12:25:51.475Z,100.20
2023-12-08T12:28:21.293Z,106.27
2023-12-08T12:30:51.431Z,94.20
2023-12-08T12:33:21.515Z,107.80
2023-12-08T12:35:56.570Z,79.70
2023-12-08T12:38:23.076Z,91.60
2023-12-08T12:40:56.721Z,97.57
2023-12-08T12:43:26.785Z,100.77
2023-12-08T12:45:57.169Z,108.45
2023-12-08T12:48:27.343Z,100.67
2023-12-08T12:50:57.323Z,101.70
2023-12-08T12:53:27.154Z,97.23
2023-12-08T12:56:08.269Z,96.37
2023-12-08T12:58:38.253Z,89.30
2023-12-08T13:01:15.152Z,95.47
2023-12-08T13:03:49.184Z,103.80
2023-12-08T13:06:29.282Z,101.13
2023-12-08T13:09:04.327Z,101.60
2023-12-08T13:11:34.257Z,99.20
2023-12-08T13:14:06.786Z,92.64
2023-12-08T13:16:36.773Z,100.30
2023-12-08T13:19:06.686Z,101.33
2023-12-08T13:21:38.042Z,115.20
2023-12-08T13:24:09.977Z,90.42
2023-12-08T13:26:39.847Z,88.77
2023-12-08T13:29:09.483Z,102.92
2023-12-08T13:31:39.351Z,94.17
2023-12-08T13:34:11.626Z,102.95
2023-12-08T13:36:41.903Z,104.90
2023-12-08T13:39:11.807Z,97.50
2023-12-08T13:41:42.027Z,87.47
2023-12-08T13:44:11.708Z,106.70
2023-12-08T13:46:41.763Z,116.67
2023-12-08T13:49:11.527Z,104.00
2023-12-08T13:51:42.222Z,111.00
2023-12-08T13:54:13.018Z,115.60
2023-12-08T13:56:43.138Z,108.23
2023-12-08T13:59:13.012Z,103.03
2023-12-08T14:01:43.144Z,115.77
2023-12-08T14:04:13.172Z,117.67
2023-12-08T14:06:43.175Z,108.37
2023-12-08T14:09:13.032Z,104.60
2023-12-08T14:11:43.745Z,134.30
2023-12-08T14:14:14.016Z,116.90
2023-12-08T14:16:43.861Z,115.23
2023-12-08T14:19:14.415Z,108.07
2023-12-08T14:21:44.451Z,91.80
2023-12-08T14:24:14.305Z,105.58
2023-12-08T14:26:45.756Z,112.77
2023-12-08T14:29:16.112Z,109.10
2023-12-08T14:31:46.244Z,100.82
2023-12-08T14:34:16.289Z,104.53
2023-12-08T14:36:47.450Z,101.07
2023-12-08T14:39:18.859Z,110.63
2023-12-08T14:41:49.047Z,102.57
2023-12-08T14:44:18.928Z,104.05
2023-12-08T14:46:50.307Z,103.00
2023-12-08T14:49:20.717Z,103.33
2023-12-08T14:51:50.687Z,100.13
2023-12-08T14:54:26.135Z,100.73
2023-12-08T14:56:51.745Z,90.37
2023-12-08T14:59:21.672Z,85.30
2023-12-08T15:01:54.935Z,84.17
2023-12-08T15:04:25.539Z,77.78
2023-12-08T15:06:55.188Z,74.65
2023-12-08T15:09:25.205Z,84.73
2023-12-08T15:11:55.356Z,74.40
2023-12-08T15:14:25.006Z,79.70
2023-12-08T15:16:54.886Z,83.13
2023-12-08T15:19:24.775Z,77.43
2023-12-08T15:21:56.650Z,77.65
2023-12-08T15:24:26.222Z,80.10
2023-12-08T15:26:56.124Z,72.00
2023-12-08T15:29:25.681Z,79.35
2023-12-08T15:31:55.819Z,86.10
2023-12-08T15:34:25.799Z,78.02
2023-12-08T15:36:56.116Z,74.35
2023-12-08T15:39:25.983Z,84.83
2023-12-08T15:41:55.915Z,73.87
2023-12-08T15:44:26.535Z,83.67
2023-12-08T15:46:56.922Z,67.90
2023-12-08T15:49:26.867Z,74.30
2023-12-08T15:51:56.849Z,74.57
2023-12-08T15:54:26.523Z,82.40
2023-12-08T15:56:56.546Z,71.97
2023-12-08T15:59:26.519Z,78.93
2023-12-08T16:01:58.452Z,80.17
2023-12-08T16:04:31.142Z,74.53
2023-12-08T16:07:01.601Z,82.00
2023-12-08T16:09:31.732Z,84.62
2023-12-08T16:12:01.672Z,64.17
2023-12-08T16:14:31.583Z,71.20
2023-12-08T16:17:02.702Z,70.70
2023-12-08T16:19:32.970Z,75.17
2023-12-08T16:22:03.190Z,69.72
2023-12-08T16:24:33.171Z,65.47
2023-12-08T16:27:03.841Z,72.10
2023-12-08T16:29:34.072Z,74.10
2023-12-08T16:32:06.867Z,69.50
2023-12-08T16:34:36.751Z,74.93
2023-12-08T16:37:06.715Z,75.33
2023-12-08T16:39:36.560Z,77.37
2023-12-08T16:42:08.218Z,72.32
2023-12-08T16:44:38.278Z,71.87
2023-12-08T16:47:08.238Z,87.10
2023-12-08T16:49:38.190Z,73.87
2023-12-08T16:52:09.551Z,70.90
2023-12-08T16:54:39.246Z,81.95
2023-12-08T16:57:09.152Z,67.50
2023-12-08T16:59:39.153Z,93.17
2023-12-08T17:02:11.213Z,90.00
2023-12-08T17:04:41.086Z,81.63
2023-12-08T17:07:10.938Z,84.47
2023-12-08T17:09:40.750Z,83.53
2023-12-08T17:12:11.857Z,81.55
2023-12-08T17:14:41.705Z,75.00
2023-12-08T17:17:11.450Z,79.25
2023-12-08T17:19:41.796Z,84.17
2023-12-08T17:22:11.749Z,78.22
2023-12-08T17:24:41.721Z,79.77
2023-12-08T17:27:11.421Z,84.00
2023-12-08T17:29:41.317Z,68.13
2023-12-08T17:32:13.219Z,72.64
2023-12-08T17:34:45.250Z,66.50
2023-12-08T17:37:15.149Z,67.93
2023-12-08T17:39:45.051Z,78.37
2023-12-08T17:42:14.981Z,81.40
2023-12-08T17:44:44.945Z,62.33
2023-12-08T17:47:14.906Z,78.50
2023-12-08T17:49:44.975Z,75.33
2023-12-08T17:52:16.189Z,73.90
2023-12-08T17:54:46.047Z,64.33
2023-12-08T17:57:16.016Z,75.20
2023-12-08T17:59:46.153Z,69.80
2023-12-08T18:02:16.045Z,74.03
2023-12-08T18:04:46.274Z,70.57
2023-12-08T18:07:16.265Z,63.47
2023-12-08T18:09:46.105Z,81.13
2023-12-08T18:12:17.345Z,65.47
2023-12-08T18:14:47.262Z,76.20
2023-12-08T18:17:18.985Z,65.57
2023-12-08T18:19:49.120Z,71.03
2023-12-08T18:22:19.250Z,71.15
2023-12-08T18:24:49.195Z,68.70
2023-12-08T18:27:23.950Z,55.33
2023-12-08T18:29:50.618Z,75.27
2023-12-08T18:32:20.371Z,68.60
2023-12-08T18:34:50.804Z,74.50
2023-12-08T18:37:20.714Z,68.07
2023-12-08T18:39:50.602Z,77.47
2023-12-08T18:42:20.209Z,78.17
2023-12-08T18:44:50.095Z,70.63
2023-12-08T18:47:20.992Z,71.42
2023-12-08T18:49:50.888Z,80.80
2023-12-08T18:52:20.629Z,73.03
2023-12-08T18:54:50.778Z,78.07
2023-12-08T18:57:20.396Z,72.85
2023-12-08T18:59:50.302Z,92.00
2023-12-08T19:02:20.218Z,76.40
2023-12-08T19:04:50.484Z,62.38
2023-12-08T19:07:20.660Z,73.75
2023-12-08T19:09:50.529Z,61.87
2023-12-08T19:12:21.704Z,72.95
2023-12-08T19:14:51.331Z,66.47
2023-12-08T19:17:21.238Z,77.43
2023-12-08T19:19:51.164Z,62.90
2023-12-08T19:22:20.989Z,71.95
2023-12-08T19:24:51.156Z,67.50
2023-12-08T19:27:21.098Z,70.00
2023-12-08T19:29:50.999Z,62.27
2023-12-08T19:32:21.660Z,75.85
2023-12-08T19:34:51.580Z,55.60
2023-12-08T19:37:21.728Z,70.87
2023-12-08T19:39:51.591Z,86.17
2023-12-08T19:42:21.190Z,69.57
2023-12-08T19:44:54.631Z,61.87
2023-12-08T19:47:24.747Z,68.90
2023-12-08T19:49:54.851Z,62.90
2023-12-08T19:52:26.203Z,65.83
2023-12-08T19:54:56.227Z,74.03
2023-12-08T19:57:26.487Z,67.90
2023-12-08T19:59:57.597Z,78.02
2023-12-08T20:02:27.208Z,65.32
2023-12-08T20:04:57.119Z,59.60
2023-12-08T20:07:27.176Z,67.70
2023-12-08T20:09:57.109Z,67.57
2023-12-08T20:12:28.020Z,62.50
2023-12-08T20:14:58.517Z,74.47
2023-12-08T20:17:29.069Z,73.30
2023-12-08T20:19:59.196Z,59.57
2023-12-08T20:22:28.882Z,61.40
2023-12-08T20:24:59.037Z,66.63
2023-12-08T20:27:29.216Z,68.63
2023-12-08T20:29:59.528Z,58.50
2023-12-08T20:32:29.235Z,59.90
2023-12-08T20:34:59.173Z,59.20
2023-12-08T20:37:29.243Z,76.40
2023-12-08T20:39:59.230Z,68.97
2023-12-08T20:42:30.887Z,56.37
2023-12-08T20:45:00.784Z,57.30
2023-12-08T20:47:31.537Z,56.93
2023-12-08T20:50:01.767Z,59.93
2023-12-08T20:52:31.635Z,66.93
2023-12-08T20:55:02.736Z,52.65
2023-12-08T20:57:32.976Z,52.95
2023-12-08T21:00:03.333Z,58.55
2023-12-08T21:02:33.501Z,60.90
2023-12-08T21:05:03.341Z,54.17
2023-12-08T21:07:34.004Z,61.23
2023-12-08T21:10:05.518Z,61.15
2023-12-08T21:12:35.517Z,61.67
2023-12-08T21:15:07.579Z,61.47
2023-12-08T21:17:41.332Z,57.98
2023-12-08T21:20:13.566Z,49.54
2023-12-08T21:22:43.403Z,59.23
2023-12-08T21:25:13.946Z,59.97
2023-12-08T21:27:44.907Z,58.33
2023-12-08T21:30:16.101Z,56.28
2023-12-08T21:32:47.182Z,57.17
2023-12-08T21:35:17.251Z,50.52
2023-12-08T21:37:46.895Z,54.70
2023-12-08T21:40:18.425Z,54.73
2023-12-08T21:42:50.799Z,58.50
2023-12-08T21:45:22.598Z,48.60
2023-12-08T21:47:52.277Z,49.07
2023-12-08T21:50:23.021Z,47.83
2023-12-08T21:52:54.084Z,46.20
2023-12-08T21:55:24.130Z,47.93
2023-12-08T21:57:54.343Z,57.85
2023-12-08T22:00:24.170Z,63.20
2023-12-08T22:02:54.196Z,59.43
2023-12-08T22:05:24.044Z,50.00
2023-12-08T22:07:53.988Z,47.37
2023-12-08T22:10:23.741Z,59.13
2023-12-08T22:12:53.601Z,50.73
2023-12-08T22:15:23.462Z,43.93
2023-12-08T22:17:53.477Z,56.23
2023-12-08T22:20:23.449Z,46.50
2023-12-08T22:22:53.301Z,48.03
2023-12-08T22:25:23.393Z,48.25
2023-12-08T22:27:53.245Z,39.83
2023-12-08T22:30:23.119Z,47.53
2023-12-08T22:32:53.041Z,45.10
2023-12-08T22:35:22.981Z,57.83
2023-12-08T22:37:52.949Z,45.93
2023-12-08T22:40:22.889Z,41.33
2023-12-08T22:42:55.362Z,47.63
2023-12-08T22:45:25.323Z,51.10
2023-12-08T22:47:55.290Z,47.63
2023-12-08T22:50:27.475Z,52.10
2023-12-08T22:52:56.529Z,61.33
2023-12-08T22:55:26.655Z,56.93
2023-12-08T22:57:57.007Z,49.97
2023-12-08T23:00:27.338Z,48.80
2023-12-08T23:02:57.741Z,57.73
2023-12-08T23:05:27.641Z,56.70
2023-12-08T23:07:57.521Z,41.70
2023-12-08T23:10:27.763Z,49.95
2023-12-08T23:12:57.553Z,43.33
2023-12-08T23:15:27.594Z,48.87
2023-12-08T23:17:57.745Z,60.50
2023-12-08T23:20:27.763Z,50.75
2023-12-08T23:22:58.273Z,49.50
2023-12-08T23:25:28.154Z,44.33
2023-12-08T23:27:58.050Z,51.13
2023-12-08T23:30:27.842Z,67.03
2023-12-08T23:32:57.798Z,55.43
2023-12-08T23:35:29.415Z,46.70
2023-12-08T23:37:59.123Z,49.55
2023-12-08T23:40:28.664Z,49.70
2023-12-08T23:42:58.515Z,56.77
2023-12-08T23:45:29.645Z,61.57
2023-12-08T23:48:01.450Z,45.37
2023-12-08T23:50:31.446Z,50.73
2023-12-08T23:53:01.357Z,56.60
2023-12-08T23:55:31.231Z,63.30
2023-12-08T23:58:01.187Z,55.57
